sensor_id;sensor_type;location;lat;lon;timestamp;P1;P2;P0
61804;PMS7003;47725;47.912;7.356;2023-07-22T00:01:54;0.00;0.00;
61804;PMS7003;47725;47.912;7.356;2023-07-22T00:06:06;0.00;0.00;
61804;PMS7003;47725;47.912;7.356;2023-07-22T00:09:54;0.00;0.00;
61804;PMS7003;47725;47.912;7.356;2023-07-22T00:13:54;0.00;0.00;
61804;PMS7003;47725;47.912;7.356;2023-07-22T00:17:54;0.00;0.00;
61804;PMS7003;47725;47.912;7.356;2023-07-22T00:21:54;0.00;0.00;
61804;PMS7003;47725;47.912;7.356;2023-07-22T00:25:54;0.00;0.00;
61804;PMS7003;47725;47.912;7.356;2023-07-22T00:29:54;0.00;0.00;
61804;PMS7003;47725;47.912;7.356;2023-07-22T00:33:53;0.00;0.00;
61804;PMS7003;47725;47.912;7.356;2023-07-22T00:37:53;0.00;0.00;
61804;PMS7003;47725;47.912;7.356;2023-07-22T00:41:54;0.00;0.00;
61804;PMS7003;47725;47.912;7.356;2023-07-22T00:45:54;0.96;0.96;
61804;PMS7003;47725;47.912;7.356;2023-07-22T00:49:54;0.96;0.96;
61804;PMS7003;47725;47.912;7.356;2023-07-22T00:53:53;0.00;0.00;
61804;PMS7003;47725;47.912;7.356;2023-07-22T00:57:54;0.00;0.00;
61804;PMS7003;47725;47.912;7.356;2023-07-22T01:01:53;0.00;0.00;
61804;PMS7003;47725;47.912;7.356;2023-07-22T01:05:54;0.00;0.00;
61804;PMS7003;47725;47.912;7.356;2023-07-22T01:09:57;0.00;0.00;
61804;PMS7003;47725;47.912;7.356;2023-07-22T01:13:53;0.00;0.00;
61804;PMS7003;47725;47.912;7.356;2023-07-22T01:17:53;0.00;0.00;
61804;PMS7003;47725;47.912;7.356;2023-07-22T01:21:53;0.00;0.00;
61804;PMS7003;47725;47.912;7.356;2023-07-22T01:25:53;0.00;0.00;
61804;PMS7003;47725;47.912;7.356;2023-07-22T01:29:53;0.00;0.00;
61804;PMS7003;47725;47.912;7.356;2023-07-22T01:33:53;1.89;0.95;
61804;PMS7003;47725;47.912;7.356;2023-07-22T01:37:53;1.89;0.95;
61804;PMS7003;47725;47.912;7.356;2023-07-22T01:41:53;1.89;0.95;
61804;PMS7003;47725;47.912;7.356;2023-07-22T01:45:53;0.00;0.00;
61804;PMS7003;47725;47.912;7.356;2023-07-22T01:49:53;0.00;0.00;
61804;PMS7003;47725;47.912;7.356;2023-07-22T01:53:53;0.95;0.00;
61804;PMS7003;47725;47.912;7.356;2023-07-22T01:57:53;0.95;0.00;
61804;PMS7003;47725;47.912;7.356;2023-07-22T02:01:53;0.95;0.00;
61804;PMS7003;47725;47.912;7.356;2023-07-22T02:06:00;0.00;0.00;
61804;PMS7003;47725;47.912;7.356;2023-07-22T02:09:54;0.00;0.00;
61804;PMS7003;47725;47.912;7.356;2023-07-22T02:13:53;0.00;0.00;
61804;PMS7003;47725;47.912;7.356;2023-07-22T02:17:53;0.00;0.00;
61804;PMS7003;47725;47.912;7.356;2023-07-22T02:21:53;0.00;0.00;
61804;PMS7003;47725;47.912;7.356;2023-07-22T02:25:54;0.94;0.94;
61804;PMS7003;47725;47.912;7.356;2023-07-22T02:29:53;0.94;0.94;
61804;PMS7003;47725;47.912;7.356;2023-07-22T02:33:53;0.00;0.00;
61804;PMS7003;47725;47.912;7.356;2023-07-22T02:37:53;0.00;0.00;
61804;PMS7003;47725;47.912;7.356;2023-07-22T02:41:53;0.00;0.00;
61804;PMS7003;47725;47.912;7.356;2023-07-22T02:45:54;0.93;0.00;
61804;PMS7003;47725;47.912;7.356;2023-07-22T02:49:53;0.93;0.00;
61804;PMS7003;47725;47.912;7.356;2023-07-22T02:53:53;0.00;0.00;
61804;PMS7003;47725;47.912;7.356;2023-07-22T02:57:53;0.00;0.00;
61804;PMS7003;47725;47.912;7.356;2023-07-22T03:01:53;0.00;0.00;
61804;PMS7003;47725;47.912;7.356;2023-07-22T03:05:53;0.94;0.94;
61804;PMS7003;47725;47.912;7.356;2023-07-22T03:09:53;0.94;0.94;
61804;PMS7003;47725;47.912;7.356;2023-07-22T03:13:53;0.00;0.00;
61804;PMS7003;47725;47.912;7.356;2023-07-22T03:17:54;0.00;0.00;
61804;PMS7003;47725;47.912;7.356;2023-07-22T03:21:53;0.00;0.00;
61804;PMS7003;47725;47.912;7.356;2023-07-22T03:25:53;0.93;0.93;
61804;PMS7003;47725;47.912;7.356;2023-07-22T03:29:53;0.93;0.93;
61804;PMS7003;47725;47.912;7.356;2023-07-22T03:33:53;0.00;0.00;
61804;PMS7003;47725;47.912;7.356;2023-07-22T03:37:53;0.00;0.00;
61804;PMS7003;47725;47.912;7.356;2023-07-22T03:41:53;0.00;0.00;
61804;PMS7003;47725;47.912;7.356;2023-07-22T03:45:53;0.93;0.93;
61804;PMS7003;47725;47.912;7.356;2023-07-22T03:49:53;0.93;0.93;
61804;PMS7003;47725;47.912;7.356;2023-07-22T03:53:53;0.00;0.00;
61804;PMS7003;47725;47.912;7.356;2023-07-22T03:57:53;0.00;0.00;
61804;PMS7003;47725;47.912;7.356;2023-07-22T04:01:53;0.00;0.00;
61804;PMS7003;47725;47.912;7.356;2023-07-22T04:05:54;2.80;0.00;
61804;PMS7003;47725;47.912;7.356;2023-07-22T04:09:53;2.80;0.00;
61804;PMS7003;47725;47.912;7.356;2023-07-22T04:13:53;0.93;0.93;
61804;PMS7003;47725;47.912;7.356;2023-07-22T04:17:53;0.93;0.93;
61804;PMS7003;47725;47.912;7.356;2023-07-22T04:21:53;0.93;0.93;
61804;PMS7003;47725;47.912;7.356;2023-07-22T04:25:53;0.00;0.00;
61804;PMS7003;47725;47.912;7.356;2023-07-22T04:29:53;0.00;0.00;
61804;PMS7003;47725;47.912;7.356;2023-07-22T04:33:53;0.00;0.00;
61804;PMS7003;47725;47.912;7.356;2023-07-22T04:37:53;0.00;0.00;
61804;PMS7003;47725;47.912;7.356;2023-07-22T04:41:53;0.00;0.00;
61804;PMS7003;47725;47.912;7.356;2023-07-22T04:45:53;0.93;0.93;
61804;PMS7003;47725;47.912;7.356;2023-07-22T04:49:53;0.93;0.93;
61804;PMS7003;47725;47.912;7.356;2023-07-22T04:53:53;4.65;1.86;
61804;PMS7003;47725;47.912;7.356;2023-07-22T04:57:53;4.65;1.86;
61804;PMS7003;47725;47.912;7.356;2023-07-22T05:01:53;4.65;1.86;
61804;PMS7003;47725;47.912;7.356;2023-07-22T05:05:53;0.93;0.93;
61804;PMS7003;47725;47.912;7.356;2023-07-22T05:09:53;0.93;0.93;
61804;PMS7003;47725;47.912;7.356;2023-07-22T05:13:53;0.93;0.00;
61804;PMS7003;47725;47.912;7.356;2023-07-22T05:17:53;0.93;0.00;
61804;PMS7003;47725;47.912;7.356;2023-07-22T05:21:53;0.93;0.00;
61804;PMS7003;47725;47.912;7.356;2023-07-22T05:25:53;0.00;0.00;
61804;PMS7003;47725;47.912;7.356;2023-07-22T05:29:53;0.00;0.00;
61804;PMS7003;47725;47.912;7.356;2023-07-22T05:33:53;0.93;0.00;
61804;PMS7003;47725;47.912;7.356;2023-07-22T05:37:53;0.93;0.00;
61804;PMS7003;47725;47.912;7.356;2023-07-22T05:41:53;0.93;0.00;
61804;PMS7003;47725;47.912;7.356;2023-07-22T05:45:53;0.93;0.93;
61804;PMS7003;47725;47.912;7.356;2023-07-22T05:49:53;0.93;0.93;
61804;PMS7003;47725;47.912;7.356;2023-07-22T05:53:53;0.93;0.93;
61804;PMS7003;47725;47.912;7.356;2023-07-22T05:57:53;0.93;0.93;
61804;PMS7003;47725;47.912;7.356;2023-07-22T06:01:53;0.93;0.93;
61804;PMS7003;47725;47.912;7.356;2023-07-22T06:05:53;0.00;0.00;
61804;PMS7003;47725;47.912;7.356;2023-07-22T06:09:53;0.00;0.00;
61804;PMS7003;47725;47.912;7.356;2023-07-22T06:13:53;0.94;0.94;
61804;PMS7003;47725;47.912;7.356;2023-07-22T06:17:53;0.94;0.94;
61804;PMS7003;47725;47.912;7.356;2023-07-22T06:21:53;0.94;0.94;
61804;PMS7003;47725;47.912;7.356;2023-07-22T06:25:53;0.00;0.00;
61804;PMS7003;47725;47.912;7.356;2023-07-22T06:29:53;0.00;0.00;
61804;PMS7003;47725;47.912;7.356;2023-07-22T06:33:53;1.89;0.00;
61804;PMS7003;47725;47.912;7.356;2023-07-22T06:37:53;1.89;0.00;
61804;PMS7003;47725;47.912;7.356;2023-07-22T06:41:53;1.89;0.00;
61804;PMS7003;47725;47.912;7.356;2023-07-22T06:45:53;0.00;0.00;
61804;PMS7003;47725;47.912;7.356;2023-07-22T06:49:53;0.00;0.00;
61804;PMS7003;47725;47.912;7.356;2023-07-22T06:53:53;0.00;0.00;
61804;PMS7003;47725;47.912;7.356;2023-07-22T06:57:55;0.00;0.00;
61804;PMS7003;47725;47.912;7.356;2023-07-22T07:01:53;0.00;0.00;
61804;PMS7003;47725;47.912;7.356;2023-07-22T07:05:54;0.00;0.00;
61804;PMS7003;47725;47.912;7.356;2023-07-22T07:09:53;0.00;0.00;
61804;PMS7003;47725;47.912;7.356;2023-07-22T07:13:53;2.86;0.00;
61804;PMS7003;47725;47.912;7.356;2023-07-22T07:17:53;2.86;0.00;
61804;PMS7003;47725;47.912;7.356;2023-07-22T07:21:53;2.86;0.00;
61804;PMS7003;47725;47.912;7.356;2023-07-22T07:25:53;0.00;0.00;
61804;PMS7003;47725;47.912;7.356;2023-07-22T07:29:53;0.00;0.00;
61804;PMS7003;47725;47.912;7.356;2023-07-22T07:33:53;0.00;0.00;
61804;PMS7003;47725;47.912;7.356;2023-07-22T07:37:53;0.00;0.00;
61804;PMS7003;47725;47.912;7.356;2023-07-22T07:41:53;0.00;0.00;
61804;PMS7003;47725;47.912;7.356;2023-07-22T07:46:12;0.00;0.00;
61804;PMS7003;47725;47.912;7.356;2023-07-22T07:49:53;0.00;0.00;
61804;PMS7003;47725;47.912;7.356;2023-07-22T07:53:53;0.00;0.00;
61804;PMS7003;47725;47.912;7.356;2023-07-22T07:57:53;0.00;0.00;
61804;PMS7003;47725;47.912;7.356;2023-07-22T08:01:53;0.00;0.00;
61804;PMS7003;47725;47.912;7.356;2023-07-22T08:05:53;0.00;0.00;
61804;PMS7003;47725;47.912;7.356;2023-07-22T08:09:53;0.00;0.00;
61804;PMS7003;47725;47.912;7.356;2023-07-22T08:13:53;0.00;0.00;
61804;PMS7003;47725;47.912;7.356;2023-07-22T08:17:53;0.00;0.00;
61804;PMS7003;47725;47.912;7.356;2023-07-22T08:21:53;0.00;0.00;
61804;PMS7003;47725;47.912;7.356;2023-07-22T08:25:53;0.00;0.00;
61804;PMS7003;47725;47.912;7.356;2023-07-22T08:29:53;0.00;0.00;
61804;PMS7003;47725;47.912;7.356;2023-07-22T08:33:53;0.00;0.00;
61804;PMS7003;47725;47.912;7.356;2023-07-22T08:37:53;0.00;0.00;
61804;PMS7003;47725;47.912;7.356;2023-07-22T08:41:53;0.00;0.00;
61804;PMS7003;47725;47.912;7.356;2023-07-22T08:45:53;0.00;0.00;
61804;PMS7003;47725;47.912;7.356;2023-07-22T08:49:53;0.00;0.00;
61804;PMS7003;47725;47.912;7.356;2023-07-22T08:53:53;0.00;0.00;
61804;PMS7003;47725;47.912;7.356;2023-07-22T08:57:53;0.00;0.00;
61804;PMS7003;47725;47.912;7.356;2023-07-22T09:01:53;0.00;0.00;
61804;PMS7003;47725;47.912;7.356;2023-07-22T09:05:54;0.00;0.00;
61804;PMS7003;47725;47.912;7.356;2023-07-22T09:09:53;0.00;0.00;
61804;PMS7003;47725;47.912;7.356;2023-07-22T09:13:53;0.00;0.00;
61804;PMS7003;47725;47.912;7.356;2023-07-22T09:17:53;0.00;0.00;
61804;PMS7003;47725;47.912;7.356;2023-07-22T09:21:53;0.00;0.00;
61804;PMS7003;47725;47.912;7.356;2023-07-22T09:25:53;0.00;0.00;
61804;PMS7003;47725;47.912;7.356;2023-07-22T09:29:53;0.00;0.00;
61804;PMS7003;47725;47.912;7.356;2023-07-22T09:33:53;0.00;0.00;
61804;PMS7003;47725;47.912;7.356;2023-07-22T09:37:53;0.00;0.00;
61804;PMS7003;47725;47.912;7.356;2023-07-22T09:41:53;0.00;0.00;
61804;PMS7003;47725;47.912;7.356;2023-07-22T09:45:53;0.00;0.00;
61804;PMS7003;47725;47.912;7.356;2023-07-22T09:49:53;0.00;0.00;
61804;PMS7003;47725;47.912;7.356;2023-07-22T09:54:00;0.00;0.00;
61804;PMS7003;47725;47.912;7.356;2023-07-22T09:58:02;0.00;0.00;
61804;PMS7003;47725;47.912;7.356;2023-07-22T10:01:53;0.00;0.00;
61804;PMS7003;47725;47.912;7.356;2023-07-22T10:05:53;0.00;0.00;
61804;PMS7003;47725;47.912;7.356;2023-07-22T10:09:54;0.00;0.00;
61804;PMS7003;47725;47.912;7.356;2023-07-22T10:13:53;0.00;0.00;
61804;PMS7003;47725;47.912;7.356;2023-07-22T10:17:53;0.00;0.00;
61804;PMS7003;47725;47.912;7.356;2023-07-22T10:21:53;0.00;0.00;
61804;PMS7003;47725;47.912;7.356;2023-07-22T10:25:53;0.00;0.00;
61804;PMS7003;47725;47.912;7.356;2023-07-22T10:29:53;0.00;0.00;
61804;PMS7003;47725;47.912;7.356;2023-07-22T10:33:53;0.00;0.00;
61804;PMS7003;47725;47.912;7.356;2023-07-22T10:37:53;0.00;0.00;
61804;PMS7003;47725;47.912;7.356;2023-07-22T10:42:02;0.00;0.00;
61804;PMS7003;47725;47.912;7.356;2023-07-22T10:46:05;1.00;0.00;
61804;PMS7003;47725;47.912;7.356;2023-07-22T10:49:53;1.00;0.00;
61804;PMS7003;47725;47.912;7.356;2023-07-22T10:53:53;0.00;0.00;
61804;PMS7003;47725;47.912;7.356;2023-07-22T10:57:54;0.00;0.00;
61804;PMS7003;47725;47.912;7.356;2023-07-22T11:01:53;0.00;0.00;
61804;PMS7003;47725;47.912;7.356;2023-07-22T11:05:53;0.00;0.00;
61804;PMS7003;47725;47.912;7.356;2023-07-22T11:09:53;0.00;0.00;
61804;PMS7003;47725;47.912;7.356;2023-07-22T11:13:53;11.99;10.99;
61804;PMS7003;47725;47.912;7.356;2023-07-22T11:17:53;11.99;10.99;
61804;PMS7003;47725;47.912;7.356;2023-07-22T11:21:54;11.99;10.99;
61804;PMS7003;47725;47.912;7.356;2023-07-22T11:25:53;0.00;0.00;
61804;PMS7003;47725;47.912;7.356;2023-07-22T11:29:53;0.00;0.00;
61804;PMS7003;47725;47.912;7.356;2023-07-22T11:33:53;0.00;0.00;
61804;PMS7003;47725;47.912;7.356;2023-07-22T11:41:53;0.00;0.00;
61804;PMS7003;47725;47.912;7.356;2023-07-22T11:45:53;0.00;0.00;
61804;PMS7003;47725;47.912;7.356;2023-07-22T11:49:53;0.00;0.00;
61804;PMS7003;47725;47.912;7.356;2023-07-22T11:53:53;0.00;0.00;
61804;PMS7003;47725;47.912;7.356;2023-07-22T11:57:53;0.00;0.00;
61804;PMS7003;47725;47.912;7.356;2023-07-22T12:01:53;0.00;0.00;
61804;PMS7003;47725;47.912;7.356;2023-07-22T12:05:53;0.00;0.00;
61804;PMS7003;47725;47.912;7.356;2023-07-22T12:09:54;0.00;0.00;
61804;PMS7003;47725;47.912;7.356;2023-07-22T12:14:12;0.00;0.00;
61804;PMS7003;47725;47.912;7.356;2023-07-22T12:17:54;0.00;0.00;
61804;PMS7003;47725;47.912;7.356;2023-07-22T12:21:53;0.00;0.00;
61804;PMS7003;47725;47.912;7.356;2023-07-22T12:25:53;0.00;0.00;
61804;PMS7003;47725;47.912;7.356;2023-07-22T12:29:53;0.00;0.00;
61804;PMS7003;47725;47.912;7.356;2023-07-22T12:33:53;2.00;0.00;
61804;PMS7003;47725;47.912;7.356;2023-07-22T12:37:53;2.00;0.00;
61804;PMS7003;47725;47.912;7.356;2023-07-22T12:45:53;0.00;0.00;
61804;PMS7003;47725;47.912;7.356;2023-07-22T12:49:53;0.00;0.00;
61804;PMS7003;47725;47.912;7.356;2023-07-22T12:53:53;0.00;0.00;
61804;PMS7003;47725;47.912;7.356;2023-07-22T12:57:53;0.00;0.00;
61804;PMS7003;47725;47.912;7.356;2023-07-22T13:01:53;0.00;0.00;
61804;PMS7003;47725;47.912;7.356;2023-07-22T13:05:53;0.00;0.00;
61804;PMS7003;47725;47.912;7.356;2023-07-22T13:09:53;0.00;0.00;
61804;PMS7003;47725;47.912;7.356;2023-07-22T13:13:53;0.00;0.00;
61804;PMS7003;47725;47.912;7.356;2023-07-22T13:17:53;0.00;0.00;
61804;PMS7003;47725;47.912;7.356;2023-07-22T13:21:53;0.00;0.00;
61804;PMS7003;47725;47.912;7.356;2023-07-22T13:25:53;0.00;0.00;
61804;PMS7003;47725;47.912;7.356;2023-07-22T13:29:53;0.00;0.00;
61804;PMS7003;47725;47.912;7.356;2023-07-22T13:33:53;0.00;0.00;
61804;PMS7003;47725;47.912;7.356;2023-07-22T13:37:53;0.00;0.00;
61804;PMS7003;47725;47.912;7.356;2023-07-22T13:41:53;0.00;0.00;
61804;PMS7003;47725;47.912;7.356;2023-07-22T13:45:53;0.00;0.00;
61804;PMS7003;47725;47.912;7.356;2023-07-22T13:49:53;0.00;0.00;
61804;PMS7003;47725;47.912;7.356;2023-07-22T13:53:53;0.00;0.00;
61804;PMS7003;47725;47.912;7.356;2023-07-22T13:57:53;0.00;0.00;
61804;PMS7003;47725;47.912;7.356;2023-07-22T14:01:53;0.00;0.00;
61804;PMS7003;47725;47.912;7.356;2023-07-22T14:05:53;0.00;0.00;
61804;PMS7003;47725;47.912;7.356;2023-07-22T14:09:53;0.00;0.00;
61804;PMS7003;47725;47.912;7.356;2023-07-22T14:13:53;0.00;0.00;
61804;PMS7003;47725;47.912;7.356;2023-07-22T14:17:53;0.00;0.00;
61804;PMS7003;47725;47.912;7.356;2023-07-22T14:21:53;0.00;0.00;
61804;PMS7003;47725;47.912;7.356;2023-07-22T14:25:53;0.00;0.00;
61804;PMS7003;47725;47.912;7.356;2023-07-22T14:29:53;0.00;0.00;
61804;PMS7003;47725;47.912;7.356;2023-07-22T14:33:53;0.00;0.00;
61804;PMS7003;47725;47.912;7.356;2023-07-22T14:37:53;0.00;0.00;
61804;PMS7003;47725;47.912;7.356;2023-07-22T14:41:53;0.00;0.00;
61804;PMS7003;47725;47.912;7.356;2023-07-22T14:45:53;0.00;0.00;
61804;PMS7003;47725;47.912;7.356;2023-07-22T14:49:53;0.00;0.00;
61804;PMS7003;47725;47.912;7.356;2023-07-22T14:53:53;0.00;0.00;
61804;PMS7003;47725;47.912;7.356;2023-07-22T14:57:53;0.00;0.00;
61804;PMS7003;47725;47.912;7.356;2023-07-22T15:01:53;0.00;0.00;
61804;PMS7003;47725;47.912;7.356;2023-07-22T15:05:53;0.00;0.00;
61804;PMS7003;47725;47.912;7.356;2023-07-22T15:09:53;0.00;0.00;
61804;PMS7003;47725;47.912;7.356;2023-07-22T15:13:53;0.00;0.00;
61804;PMS7003;47725;47.912;7.356;2023-07-22T15:17:53;0.00;0.00;
61804;PMS7003;47725;47.912;7.356;2023-07-22T15:21:53;0.00;0.00;
61804;PMS7003;47725;47.912;7.356;2023-07-22T15:25:53;0.00;0.00;
61804;PMS7003;47725;47.912;7.356;2023-07-22T15:29:53;0.00;0.00;
61804;PMS7003;47725;47.912;7.356;2023-07-22T15:33:53;0.00;0.00;
61804;PMS7003;47725;47.912;7.356;2023-07-22T15:37:53;0.00;0.00;
61804;PMS7003;47725;47.912;7.356;2023-07-22T15:41:53;0.00;0.00;
61804;PMS7003;47725;47.912;7.356;2023-07-22T15:45:53;0.00;0.00;
61804;PMS7003;47725;47.912;7.356;2023-07-22T15:49:53;0.00;0.00;
61804;PMS7003;47725;47.912;7.356;2023-07-22T15:53:53;0.00;0.00;
61804;PMS7003;47725;47.912;7.356;2023-07-22T15:57:53;0.00;0.00;
61804;PMS7003;47725;47.912;7.356;2023-07-22T16:01:53;0.00;0.00;
61804;PMS7003;47725;47.912;7.356;2023-07-22T16:05:53;0.00;0.00;
61804;PMS7003;47725;47.912;7.356;2023-07-22T16:09:53;0.00;0.00;
61804;PMS7003;47725;47.912;7.356;2023-07-22T16:13:53;0.00;0.00;
61804;PMS7003;47725;47.912;7.356;2023-07-22T16:17:53;0.00;0.00;
61804;PMS7003;47725;47.912;7.356;2023-07-22T16:21:53;0.00;0.00;
61804;PMS7003;47725;47.912;7.356;2023-07-22T16:25:53;0.00;0.00;
61804;PMS7003;47725;47.912;7.356;2023-07-22T16:29:53;0.00;0.00;
61804;PMS7003;47725;47.912;7.356;2023-07-22T16:33:53;0.00;0.00;
61804;PMS7003;47725;47.912;7.356;2023-07-22T16:37:53;0.00;0.00;
61804;PMS7003;47725;47.912;7.356;2023-07-22T16:41:53;0.00;0.00;
61804;PMS7003;47725;47.912;7.356;2023-07-22T16:45:53;0.00;0.00;
61804;PMS7003;47725;47.912;7.356;2023-07-22T16:49:53;0.00;0.00;
61804;PMS7003;47725;47.912;7.356;2023-07-22T16:53:53;0.00;0.00;
61804;PMS7003;47725;47.912;7.356;2023-07-22T16:57:53;0.00;0.00;
61804;PMS7003;47725;47.912;7.356;2023-07-22T17:01:53;0.00;0.00;
61804;PMS7003;47725;47.912;7.356;2023-07-22T17:05:53;0.00;0.00;
61804;PMS7003;47725;47.912;7.356;2023-07-22T17:09:53;0.00;0.00;
61804;PMS7003;47725;47.912;7.356;2023-07-22T17:13:53;0.00;0.00;
61804;PMS7003;47725;47.912;7.356;2023-07-22T17:17:53;0.00;0.00;
61804;PMS7003;47725;47.912;7.356;2023-07-22T17:21:53;0.00;0.00;
61804;PMS7003;47725;47.912;7.356;2023-07-22T17:25:53;0.00;0.00;
61804;PMS7003;47725;47.912;7.356;2023-07-22T17:29:53;0.00;0.00;
61804;PMS7003;47725;47.912;7.356;2023-07-22T17:33:53;0.00;0.00;
61804;PMS7003;47725;47.912;7.356;2023-07-22T17:37:53;0.00;0.00;
61804;PMS7003;47725;47.912;7.356;2023-07-22T17:41:53;0.00;0.00;
61804;PMS7003;47725;47.912;7.356;2023-07-22T17:45:53;0.00;0.00;
61804;PMS7003;47725;47.912;7.356;2023-07-22T17:49:53;0.00;0.00;
61804;PMS7003;47725;47.912;7.356;2023-07-22T17:53:53;0.00;0.00;
61804;PMS7003;47725;47.912;7.356;2023-07-22T17:57:53;0.00;0.00;
61804;PMS7003;47725;47.912;7.356;2023-07-22T18:01:53;0.00;0.00;
61804;PMS7003;47725;47.912;7.356;2023-07-22T18:05:53;0.00;0.00;
61804;PMS7003;47725;47.912;7.356;2023-07-22T18:09:53;0.00;0.00;
61804;PMS7003;47725;47.912;7.356;2023-07-22T18:13:53;0.00;0.00;
61804;PMS7003;47725;47.912;7.356;2023-07-22T18:17:53;0.00;0.00;
61804;PMS7003;47725;47.912;7.356;2023-07-22T18:21:53;0.00;0.00;
61804;PMS7003;47725;47.912;7.356;2023-07-22T18:25:53;0.00;0.00;
61804;PMS7003;47725;47.912;7.356;2023-07-22T18:29:53;0.00;0.00;
61804;PMS7003;47725;47.912;7.356;2023-07-22T18:33:53;0.00;0.00;
61804;PMS7003;47725;47.912;7.356;2023-07-22T18:37:53;0.00;0.00;
61804;PMS7003;47725;47.912;7.356;2023-07-22T18:41:53;0.00;0.00;
61804;PMS7003;47725;47.912;7.356;2023-07-22T18:45:53;0.00;0.00;
61804;PMS7003;47725;47.912;7.356;2023-07-22T18:49:53;0.00;0.00;
61804;PMS7003;47725;47.912;7.356;2023-07-22T18:53:53;0.00;0.00;
61804;PMS7003;47725;47.912;7.356;2023-07-22T18:57:53;0.00;0.00;
61804;PMS7003;47725;47.912;7.356;2023-07-22T19:01:53;0.00;0.00;
61804;PMS7003;47725;47.912;7.356;2023-07-22T19:05:53;0.00;0.00;
61804;PMS7003;47725;47.912;7.356;2023-07-22T19:09:53;0.00;0.00;
61804;PMS7003;47725;47.912;7.356;2023-07-22T19:13:53;0.00;0.00;
61804;PMS7003;47725;47.912;7.356;2023-07-22T19:17:53;0.00;0.00;
61804;PMS7003;47725;47.912;7.356;2023-07-22T19:21:53;0.00;0.00;
61804;PMS7003;47725;47.912;7.356;2023-07-22T19:25:53;0.00;0.00;
61804;PMS7003;47725;47.912;7.356;2023-07-22T19:29:53;0.00;0.00;
61804;PMS7003;47725;47.912;7.356;2023-07-22T19:33:53;2.00;0.00;
61804;PMS7003;47725;47.912;7.356;2023-07-22T19:37:53;2.00;0.00;
61804;PMS7003;47725;47.912;7.356;2023-07-22T19:41:53;2.00;0.00;
61804;PMS7003;47725;47.912;7.356;2023-07-22T19:49:53;0.00;0.00;
61804;PMS7003;47725;47.912;7.356;2023-07-22T19:53:53;1.00;0.00;
61804;PMS7003;47725;47.912;7.356;2023-07-22T19:57:53;1.00;0.00;
61804;PMS7003;47725;47.912;7.356;2023-07-22T20:01:53;1.00;0.00;
61804;PMS7003;47725;47.912;7.356;2023-07-22T20:05:53;1.00;0.00;
61804;PMS7003;47725;47.912;7.356;2023-07-22T20:09:52;1.00;0.00;
61804;PMS7003;47725;47.912;7.356;2023-07-22T20:13:52;0.00;0.00;
61804;PMS7003;47725;47.912;7.356;2023-07-22T20:17:53;0.00;0.00;
61804;PMS7003;47725;47.912;7.356;2023-07-22T20:21:52;0.00;0.00;
61804;PMS7003;47725;47.912;7.356;2023-07-22T20:25:52;0.00;0.00;
61804;PMS7003;47725;47.912;7.356;2023-07-22T20:29:53;0.00;0.00;
61804;PMS7003;47725;47.912;7.356;2023-07-22T20:33:52;0.00;0.00;
61804;PMS7003;47725;47.912;7.356;2023-07-22T20:37:52;0.00;0.00;
61804;PMS7003;47725;47.912;7.356;2023-07-22T20:41:52;0.00;0.00;
61804;PMS7003;47725;47.912;7.356;2023-07-22T20:45:52;0.00;0.00;
61804;PMS7003;47725;47.912;7.356;2023-07-22T20:49:52;0.00;0.00;
61804;PMS7003;47725;47.912;7.356;2023-07-22T20:53:52;2.98;2.98;
61804;PMS7003;47725;47.912;7.356;2023-07-22T20:57:52;2.98;2.98;
61804;PMS7003;47725;47.912;7.356;2023-07-22T21:01:52;2.98;2.98;
61804;PMS7003;47725;47.912;7.356;2023-07-22T21:05:53;0.00;0.00;
61804;PMS7003;47725;47.912;7.356;2023-07-22T21:09:52;0.00;0.00;
61804;PMS7003;47725;47.912;7.356;2023-07-22T21:13:52;0.00;0.00;
61804;PMS7003;47725;47.912;7.356;2023-07-22T21:17:52;0.00;0.00;
61804;PMS7003;47725;47.912;7.356;2023-07-22T21:21:52;0.00;0.00;
61804;PMS7003;47725;47.912;7.356;2023-07-22T21:25:55;0.00;0.00;
61804;PMS7003;47725;47.912;7.356;2023-07-22T21:29:52;0.00;0.00;
61804;PMS7003;47725;47.912;7.356;2023-07-22T21:33:52;0.00;0.00;
61804;PMS7003;47725;47.912;7.356;2023-07-22T21:37:52;0.00;0.00;
61804;PMS7003;47725;47.912;7.356;2023-07-22T21:41:52;0.00;0.00;
61804;PMS7003;47725;47.912;7.356;2023-07-22T21:45:52;0.00;0.00;
61804;PMS7003;47725;47.912;7.356;2023-07-22T21:49:52;0.00;0.00;
61804;PMS7003;47725;47.912;7.356;2023-07-22T21:53:52;0.00;0.00;
61804;PMS7003;47725;47.912;7.356;2023-07-22T21:57:52;0.00;0.00;
61804;PMS7003;47725;47.912;7.356;2023-07-22T22:01:52;0.00;0.00;
61804;PMS7003;47725;47.912;7.356;2023-07-22T22:05:56;0.00;0.00;
61804;PMS7003;47725;47.912;7.356;2023-07-22T22:09:55;0.00;0.00;
61804;PMS7003;47725;47.912;7.356;2023-07-22T22:13:52;0.00;0.00;
61804;PMS7003;47725;47.912;7.356;2023-07-22T22:17:52;0.00;0.00;
61804;PMS7003;47725;47.912;7.356;2023-07-22T22:21:52;0.00;0.00;
61804;PMS7003;47725;47.912;7.356;2023-07-22T22:25:52;0.99;0.00;
61804;PMS7003;47725;47.912;7.356;2023-07-22T22:29:52;0.99;0.00;
61804;PMS7003;47725;47.912;7.356;2023-07-22T22:33:52;0.00;0.00;
61804;PMS7003;47725;47.912;7.356;2023-07-22T22:37:52;0.00;0.00;
61804;PMS7003;47725;47.912;7.356;2023-07-22T22:41:52;0.00;0.00;
61804;PMS7003;47725;47.912;7.356;2023-07-22T22:45:52;0.99;0.00;
61804;PMS7003;47725;47.912;7.356;2023-07-22T22:49:52;0.99;0.00;
61804;PMS7003;47725;47.912;7.356;2023-07-22T22:53:52;0.99;0.00;
61804;PMS7003;47725;47.912;7.356;2023-07-22T22:57:52;0.99;0.00;
61804;PMS7003;47725;47.912;7.356;2023-07-22T23:01:52;0.99;0.00;
61804;PMS7003;47725;47.912;7.356;2023-07-22T23:05:52;0.00;0.00;
61804;PMS7003;47725;47.912;7.356;2023-07-22T23:09:52;0.00;0.00;
61804;PMS7003;47725;47.912;7.356;2023-07-22T23:13:52;0.00;0.00;
61804;PMS7003;47725;47.912;7.356;2023-07-22T23:17:52;0.00;0.00;
61804;PMS7003;47725;47.912;7.356;2023-07-22T23:21:52;0.00;0.00;
61804;PMS7003;47725;47.912;7.356;2023-07-22T23:25:52;0.00;0.00;
61804;PMS7003;47725;47.912;7.356;2023-07-22T23:29:52;0.00;0.00;
61804;PMS7003;47725;47.912;7.356;2023-07-22T23:33:52;0.00;0.00;
61804;PMS7003;47725;47.912;7.356;2023-07-22T23:37:52;0.00;0.00;
61804;PMS7003;47725;47.912;7.356;2023-07-22T23:41:52;0.00;0.00;
61804;PMS7003;47725;47.912;7.356;2023-07-22T23:45:53;0.00;0.00;
61804;PMS7003;47725;47.912;7.356;2023-07-22T23:49:52;0.00;0.00;
61804;PMS7003;47725;47.912;7.356;2023-07-22T23:53:52;0.98;0.00;
61804;PMS7003;47725;47.912;7.356;2023-07-22T23:57:52;0.98;0.00;
